sensor_id;sensor_type;location;lat;lon;timestamp;temperature;humidity
6948;DHT22;3513;47.664;9.162;2023-01-08T00:01:59;2.10;99.90
6948;DHT22;3513;47.664;9.162;2023-01-08T00:04:25;2.10;99.90
6948;DHT22;3513;47.664;9.162;2023-01-08T00:06:50;2.10;99.90
6948;DHT22;3513;47.664;9.162;2023-01-08T00:09:16;2.10;99.90
6948;DHT22;3513;47.664;9.162;2023-01-08T00:11:42;2.10;99.90
6948;DHT22;3513;47.664;9.162;2023-01-08T00:14:09;2.00;99.90
6948;DHT22;3513;47.664;9.162;2023-01-08T00:16:35;3.20;99.90
6948;DHT22;3513;47.664;9.162;2023-01-08T00:19:00;2.10;99.90
6948;DHT22;3513;47.664;9.162;2023-01-08T00:21:26;2.20;99.90
6948;DHT22;3513;47.664;9.162;2023-01-08T00:23:52;2.30;99.90
6948;DHT22;3513;47.664;9.162;2023-01-08T00:26:18;2.20;99.90
6948;DHT22;3513;47.664;9.162;2023-01-08T00:28:43;2.10;99.90
6948;DHT22;3513;47.664;9.162;2023-01-08T00:31:11;2.20;99.90
6948;DHT22;3513;47.664;9.162;2023-01-08T00:33:37;2.10;99.90
6948;DHT22;3513;47.664;9.162;2023-01-08T00:36:09;2.20;99.90
6948;DHT22;3513;47.664;9.162;2023-01-08T00:38:35;2.10;99.90
6948;DHT22;3513;47.664;9.162;2023-01-08T00:41:00;2.00;99.90
6948;DHT22;3513;47.664;9.162;2023-01-08T00:43:27;2.00;99.90
6948;DHT22;3513;47.664;9.162;2023-01-08T00:45:52;2.00;99.90
6948;DHT22;3513;47.664;9.162;2023-01-08T00:48:19;1.90;99.90
6948;DHT22;3513;47.664;9.162;2023-01-08T00:50:47;1.90;99.90
6948;DHT22;3513;47.664;9.162;2023-01-08T00:53:13;1.90;99.90
6948;DHT22;3513;47.664;9.162;2023-01-08T00:55:38;1.90;99.90
6948;DHT22;3513;47.664;9.162;2023-01-08T00:58:04;1.90;99.90
6948;DHT22;3513;47.664;9.162;2023-01-08T01:00:29;1.80;99.90
6948;DHT22;3513;47.664;9.162;2023-01-08T01:02:55;1.80;99.90
6948;DHT22;3513;47.664;9.162;2023-01-08T01:05:20;1.80;99.90
6948;DHT22;3513;47.664;9.162;2023-01-08T01:07:46;1.80;99.90
6948;DHT22;3513;47.664;9.162;2023-01-08T01:10:13;1.70;99.90
6948;DHT22;3513;47.664;9.162;2023-01-08T01:12:40;1.70;99.90
6948;DHT22;3513;47.664;9.162;2023-01-08T01:15:09;1.70;99.90
6948;DHT22;3513;47.664;9.162;2023-01-08T01:17:37;1.70;99.90
6948;DHT22;3513;47.664;9.162;2023-01-08T01:20:05;1.60;99.90
6948;DHT22;3513;47.664;9.162;2023-01-08T01:22:31;1.60;99.90
6948;DHT22;3513;47.664;9.162;2023-01-08T01:24:56;1.60;99.90
6948;DHT22;3513;47.664;9.162;2023-01-08T01:27:23;1.60;99.90
6948;DHT22;3513;47.664;9.162;2023-01-08T01:29:49;1.60;99.90
6948;DHT22;3513;47.664;9.162;2023-01-08T01:32:14;1.60;99.90
6948;DHT22;3513;47.664;9.162;2023-01-08T01:34:40;1.60;99.90
6948;DHT22;3513;47.664;9.162;2023-01-08T01:37:06;1.60;99.90
6948;DHT22;3513;47.664;9.162;2023-01-08T01:39:32;1.70;99.90
6948;DHT22;3513;47.664;9.162;2023-01-08T01:41:58;1.70;99.90
6948;DHT22;3513;47.664;9.162;2023-01-08T01:44:44;1.70;99.90
6948;DHT22;3513;47.664;9.162;2023-01-08T01:47:26;1.70;99.90
6948;DHT22;3513;47.664;9.162;2023-01-08T01:50:14;1.70;99.90
6948;DHT22;3513;47.664;9.162;2023-01-08T01:53:00;1.70;99.90
6948;DHT22;3513;47.664;9.162;2023-01-08T01:55:27;1.70;99.90
6948;DHT22;3513;47.664;9.162;2023-01-08T02:00:47;1.60;99.90
6948;DHT22;3513;47.664;9.162;2023-01-08T02:03:14;1.60;99.90
6948;DHT22;3513;47.664;9.162;2023-01-08T02:05:56;1.70;99.90
6948;DHT22;3513;47.664;9.162;2023-01-08T02:11:10;1.70;99.90
6948;DHT22;3513;47.664;9.162;2023-01-08T02:13:44;1.70;99.90
6948;DHT22;3513;47.664;9.162;2023-01-08T02:19:15;1.80;99.90
6948;DHT22;3513;47.664;9.162;2023-01-08T02:24:29;2.00;99.90
6948;DHT22;3513;47.664;9.162;2023-01-08T02:27:00;2.00;99.90
6948;DHT22;3513;47.664;9.162;2023-01-08T02:29:29;2.00;99.90
6948;DHT22;3513;47.664;9.162;2023-01-08T02:31:57;2.10;99.90
6948;DHT22;3513;47.664;9.162;2023-01-08T02:34:22;2.10;99.90
6948;DHT22;3513;47.664;9.162;2023-01-08T02:36:55;2.00;99.90
6948;DHT22;3513;47.664;9.162;2023-01-08T02:47:36;2.10;99.90
6948;DHT22;3513;47.664;9.162;2023-01-08T02:55:24;2.20;99.90
6948;DHT22;3513;47.664;9.162;2023-01-08T02:57:51;2.20;99.90
6948;DHT22;3513;47.664;9.162;2023-01-08T03:00:18;2.20;99.90
6948;DHT22;3513;47.664;9.162;2023-01-08T03:02:45;2.20;99.90
6948;DHT22;3513;47.664;9.162;2023-01-08T03:05:17;2.30;99.90
6948;DHT22;3513;47.664;9.162;2023-01-08T03:07:45;2.20;99.90
6948;DHT22;3513;47.664;9.162;2023-01-08T03:10:11;2.20;99.90
6948;DHT22;3513;47.664;9.162;2023-01-08T03:12:44;2.20;99.90
6948;DHT22;3513;47.664;9.162;2023-01-08T03:15:18;2.00;99.90
6948;DHT22;3513;47.664;9.162;2023-01-08T03:17:47;2.00;99.90
6948;DHT22;3513;47.664;9.162;2023-01-08T03:20:17;1.90;99.90
6948;DHT22;3513;47.664;9.162;2023-01-08T03:22:46;1.90;99.90
6948;DHT22;3513;47.664;9.162;2023-01-08T03:25:13;2.10;99.90
6948;DHT22;3513;47.664;9.162;2023-01-08T03:27:48;2.10;99.90
6948;DHT22;3513;47.664;9.162;2023-01-08T03:30:15;2.10;99.90
6948;DHT22;3513;47.664;9.162;2023-01-08T03:32:43;2.10;99.90
6948;DHT22;3513;47.664;9.162;2023-01-08T03:35:12;2.20;99.90
6948;DHT22;3513;47.664;9.162;2023-01-08T03:37:43;2.20;99.90
6948;DHT22;3513;47.664;9.162;2023-01-08T03:40:19;3.80;99.90
6948;DHT22;3513;47.664;9.162;2023-01-08T03:42:46;5.30;99.90
6948;DHT22;3513;47.664;9.162;2023-01-08T03:47:39;2.00;99.90
6948;DHT22;3513;47.664;9.162;2023-01-08T03:50:08;2.00;99.90
6948;DHT22;3513;47.664;9.162;2023-01-08T03:52:35;2.00;99.90
6948;DHT22;3513;47.664;9.162;2023-01-08T03:55:01;2.00;99.90
6948;DHT22;3513;47.664;9.162;2023-01-08T03:57:27;2.00;99.90
6948;DHT22;3513;47.664;9.162;2023-01-08T03:59:53;2.10;99.90
6948;DHT22;3513;47.664;9.162;2023-01-08T04:04:44;2.10;99.90
6948;DHT22;3513;47.664;9.162;2023-01-08T04:07:13;2.10;99.90
6948;DHT22;3513;47.664;9.162;2023-01-08T04:09:39;2.10;99.90
6948;DHT22;3513;47.664;9.162;2023-01-08T04:12:05;2.10;99.90
6948;DHT22;3513;47.664;9.162;2023-01-08T04:14:30;2.10;99.90
6948;DHT22;3513;47.664;9.162;2023-01-08T04:16:56;5.50;99.90
6948;DHT22;3513;47.664;9.162;2023-01-08T04:19:22;4.10;99.90
6948;DHT22;3513;47.664;9.162;2023-01-08T04:21:51;2.00;99.90
6948;DHT22;3513;47.664;9.162;2023-01-08T04:24:17;3.70;99.90
6948;DHT22;3513;47.664;9.162;2023-01-08T04:26:43;2.10;99.90
6948;DHT22;3513;47.664;9.162;2023-01-08T04:29:09;6.00;99.90
6948;DHT22;3513;47.664;9.162;2023-01-08T04:31:35;2.20;99.90
6948;DHT22;3513;47.664;9.162;2023-01-08T04:34:01;2.10;99.90
6948;DHT22;3513;47.664;9.162;2023-01-08T04:36:27;2.10;99.90
6948;DHT22;3513;47.664;9.162;2023-01-08T04:38:52;2.00;99.90
6948;DHT22;3513;47.664;9.162;2023-01-08T04:41:18;2.00;99.90
6948;DHT22;3513;47.664;9.162;2023-01-08T04:43:44;2.00;99.90
6948;DHT22;3513;47.664;9.162;2023-01-08T04:46:10;2.10;99.90
6948;DHT22;3513;47.664;9.162;2023-01-08T04:48:36;2.00;99.90
6948;DHT22;3513;47.664;9.162;2023-01-08T04:51:03;2.00;99.90
6948;DHT22;3513;47.664;9.162;2023-01-08T04:53:32;2.00;99.90
6948;DHT22;3513;47.664;9.162;2023-01-08T04:56:05;2.00;99.90
6948;DHT22;3513;47.664;9.162;2023-01-08T04:58:32;2.00;99.90
6948;DHT22;3513;47.664;9.162;2023-01-08T05:00:58;2.10;99.90
6948;DHT22;3513;47.664;9.162;2023-01-08T05:03:24;2.10;99.90
6948;DHT22;3513;47.664;9.162;2023-01-08T05:05:50;2.10;99.90
6948;DHT22;3513;47.664;9.162;2023-01-08T05:08:15;2.20;99.90
6948;DHT22;3513;47.664;9.162;2023-01-08T05:10:41;2.20;99.90
6948;DHT22;3513;47.664;9.162;2023-01-08T05:13:06;2.30;99.90
6948;DHT22;3513;47.664;9.162;2023-01-08T05:15:32;2.40;99.90
6948;DHT22;3513;47.664;9.162;2023-01-08T05:17:59;2.40;99.90
6948;DHT22;3513;47.664;9.162;2023-01-08T05:20:26;2.50;99.90
6948;DHT22;3513;47.664;9.162;2023-01-08T05:22:51;2.60;99.90
6948;DHT22;3513;47.664;9.162;2023-01-08T05:25:17;2.60;99.90
6948;DHT22;3513;47.664;9.162;2023-01-08T05:27:43;2.50;99.90
6948;DHT22;3513;47.664;9.162;2023-01-08T05:30:08;2.50;99.90
6948;DHT22;3513;47.664;9.162;2023-01-08T05:32:34;2.50;99.90
6948;DHT22;3513;47.664;9.162;2023-01-08T05:35:00;2.50;99.90
6948;DHT22;3513;47.664;9.162;2023-01-08T05:37:25;2.60;99.90
6948;DHT22;3513;47.664;9.162;2023-01-08T05:39:51;2.70;99.90
6948;DHT22;3513;47.664;9.162;2023-01-08T05:42:16;2.60;99.90
6948;DHT22;3513;47.664;9.162;2023-01-08T05:44:42;2.60;99.90
6948;DHT22;3513;47.664;9.162;2023-01-08T05:47:08;2.60;99.90
6948;DHT22;3513;47.664;9.162;2023-01-08T05:49:33;2.60;99.90
6948;DHT22;3513;47.664;9.162;2023-01-08T05:51:59;2.60;99.90
6948;DHT22;3513;47.664;9.162;2023-01-08T05:54:25;2.60;99.90
6948;DHT22;3513;47.664;9.162;2023-01-08T05:56:50;2.70;99.90
6948;DHT22;3513;47.664;9.162;2023-01-08T05:59:16;2.60;99.90
6948;DHT22;3513;47.664;9.162;2023-01-08T06:01:42;2.60;99.90
6948;DHT22;3513;47.664;9.162;2023-01-08T06:04:08;2.60;99.90
6948;DHT22;3513;47.664;9.162;2023-01-08T06:06:34;2.80;99.90
6948;DHT22;3513;47.664;9.162;2023-01-08T06:09:00;2.70;99.90
6948;DHT22;3513;47.664;9.162;2023-01-08T06:11:25;2.70;99.90
6948;DHT22;3513;47.664;9.162;2023-01-08T06:13:51;2.80;99.90
6948;DHT22;3513;47.664;9.162;2023-01-08T06:16:16;2.80;99.90
6948;DHT22;3513;47.664;9.162;2023-01-08T06:18:42;2.90;99.90
6948;DHT22;3513;47.664;9.162;2023-01-08T06:21:08;2.90;99.90
6948;DHT22;3513;47.664;9.162;2023-01-08T06:23:34;3.00;99.90
6948;DHT22;3513;47.664;9.162;2023-01-08T06:26:00;3.00;99.90
6948;DHT22;3513;47.664;9.162;2023-01-08T06:28:26;3.00;99.90
6948;DHT22;3513;47.664;9.162;2023-01-08T06:30:52;3.10;99.90
6948;DHT22;3513;47.664;9.162;2023-01-08T06:33:18;3.00;99.90
6948;DHT22;3513;47.664;9.162;2023-01-08T06:35:44;3.00;99.90
6948;DHT22;3513;47.664;9.162;2023-01-08T06:38:10;3.00;99.90
6948;DHT22;3513;47.664;9.162;2023-01-08T06:40:36;3.10;99.90
6948;DHT22;3513;47.664;9.162;2023-01-08T06:43:05;3.20;99.90
6948;DHT22;3513;47.664;9.162;2023-01-08T06:45:31;3.20;99.90
6948;DHT22;3513;47.664;9.162;2023-01-08T06:48:05;3.20;99.90
6948;DHT22;3513;47.664;9.162;2023-01-08T06:50:32;3.20;99.90
6948;DHT22;3513;47.664;9.162;2023-01-08T06:52:58;3.30;99.90
6948;DHT22;3513;47.664;9.162;2023-01-08T06:55:24;3.30;99.90
6948;DHT22;3513;47.664;9.162;2023-01-08T06:57:56;3.30;99.90
6948;DHT22;3513;47.664;9.162;2023-01-08T07:00:23;3.30;99.90
6948;DHT22;3513;47.664;9.162;2023-01-08T07:02:50;3.40;99.90
6948;DHT22;3513;47.664;9.162;2023-01-08T07:05:16;3.40;99.90
6948;DHT22;3513;47.664;9.162;2023-01-08T07:07:42;3.40;99.90
6948;DHT22;3513;47.664;9.162;2023-01-08T07:10:08;3.30;99.90
6948;DHT22;3513;47.664;9.162;2023-01-08T07:12:34;3.30;99.90
6948;DHT22;3513;47.664;9.162;2023-01-08T07:15:00;3.20;99.90
6948;DHT22;3513;47.664;9.162;2023-01-08T07:17:26;3.30;99.90
6948;DHT22;3513;47.664;9.162;2023-01-08T07:19:52;3.30;99.90
6948;DHT22;3513;47.664;9.162;2023-01-08T07:22:17;3.30;99.90
6948;DHT22;3513;47.664;9.162;2023-01-08T07:24:44;3.30;99.90
6948;DHT22;3513;47.664;9.162;2023-01-08T07:27:10;3.90;99.90
6948;DHT22;3513;47.664;9.162;2023-01-08T07:29:35;3.40;99.90
6948;DHT22;3513;47.664;9.162;2023-01-08T07:32:01;3.50;99.90
6948;DHT22;3513;47.664;9.162;2023-01-08T07:34:27;3.50;99.90
6948;DHT22;3513;47.664;9.162;2023-01-08T07:36:52;3.50;99.90
6948;DHT22;3513;47.664;9.162;2023-01-08T07:39:18;3.50;99.90
6948;DHT22;3513;47.664;9.162;2023-01-08T07:41:44;3.50;99.90
6948;DHT22;3513;47.664;9.162;2023-01-08T07:44:10;3.50;99.90
6948;DHT22;3513;47.664;9.162;2023-01-08T07:46:36;3.50;99.90
6948;DHT22;3513;47.664;9.162;2023-01-08T07:49:01;3.50;99.90
6948;DHT22;3513;47.664;9.162;2023-01-08T07:51:28;3.50;99.90
6948;DHT22;3513;47.664;9.162;2023-01-08T07:53:54;3.80;99.90
6948;DHT22;3513;47.664;9.162;2023-01-08T07:56:21;3.80;99.90
6948;DHT22;3513;47.664;9.162;2023-01-08T07:58:48;3.70;99.90
6948;DHT22;3513;47.664;9.162;2023-01-08T08:01:14;3.60;99.90
6948;DHT22;3513;47.664;9.162;2023-01-08T08:03:40;3.60;99.90
6948;DHT22;3513;47.664;9.162;2023-01-08T08:06:06;3.60;99.90
6948;DHT22;3513;47.664;9.162;2023-01-08T08:08:32;3.60;99.90
6948;DHT22;3513;47.664;9.162;2023-01-08T08:10:58;3.60;99.90
6948;DHT22;3513;47.664;9.162;2023-01-08T08:13:24;3.60;99.90
6948;DHT22;3513;47.664;9.162;2023-01-08T08:15:49;3.50;99.90
6948;DHT22;3513;47.664;9.162;2023-01-08T08:18:15;3.60;99.90
6948;DHT22;3513;47.664;9.162;2023-01-08T08:20:41;4.70;99.90
6948;DHT22;3513;47.664;9.162;2023-01-08T08:23:08;3.70;99.90
6948;DHT22;3513;47.664;9.162;2023-01-08T08:25:35;3.60;99.90
6948;DHT22;3513;47.664;9.162;2023-01-08T08:28:01;3.80;99.90
6948;DHT22;3513;47.664;9.162;2023-01-08T08:30:30;4.00;99.90
6948;DHT22;3513;47.664;9.162;2023-01-08T08:32:58;4.00;99.90
6948;DHT22;3513;47.664;9.162;2023-01-08T08:35:26;4.10;99.90
6948;DHT22;3513;47.664;9.162;2023-01-08T08:37:53;4.00;99.90
6948;DHT22;3513;47.664;9.162;2023-01-08T08:40:18;3.80;99.90
6948;DHT22;3513;47.664;9.162;2023-01-08T08:42:44;3.80;99.90
6948;DHT22;3513;47.664;9.162;2023-01-08T08:45:09;3.80;99.90
6948;DHT22;3513;47.664;9.162;2023-01-08T08:47:35;3.80;99.90
6948;DHT22;3513;47.664;9.162;2023-01-08T08:50:01;3.80;99.90
6948;DHT22;3513;47.664;9.162;2023-01-08T08:52:28;3.90;99.90
6948;DHT22;3513;47.664;9.162;2023-01-08T08:54:53;3.80;99.90
6948;DHT22;3513;47.664;9.162;2023-01-08T08:57:22;3.90;99.90
6948;DHT22;3513;47.664;9.162;2023-01-08T08:59:47;3.90;99.90
6948;DHT22;3513;47.664;9.162;2023-01-08T09:02:13;3.90;99.90
6948;DHT22;3513;47.664;9.162;2023-01-08T09:04:39;4.10;99.90
6948;DHT22;3513;47.664;9.162;2023-01-08T09:07:04;4.30;99.90
6948;DHT22;3513;47.664;9.162;2023-01-08T09:09:30;4.10;99.90
6948;DHT22;3513;47.664;9.162;2023-01-08T09:11:55;4.10;99.90
6948;DHT22;3513;47.664;9.162;2023-01-08T09:14:21;4.00;99.90
6948;DHT22;3513;47.664;9.162;2023-01-08T09:16:47;4.10;99.90
6948;DHT22;3513;47.664;9.162;2023-01-08T09:19:13;4.20;99.90
6948;DHT22;3513;47.664;9.162;2023-01-08T09:21:38;4.30;99.90
6948;DHT22;3513;47.664;9.162;2023-01-08T09:24:04;4.40;99.90
6948;DHT22;3513;47.664;9.162;2023-01-08T09:26:30;4.50;99.90
6948;DHT22;3513;47.664;9.162;2023-01-08T09:28:57;4.50;99.90
6948;DHT22;3513;47.664;9.162;2023-01-08T09:31:23;4.50;99.90
6948;DHT22;3513;47.664;9.162;2023-01-08T09:33:49;4.40;99.90
6948;DHT22;3513;47.664;9.162;2023-01-08T09:36:15;4.30;99.90
6948;DHT22;3513;47.664;9.162;2023-01-08T09:38:41;4.30;99.90
6948;DHT22;3513;47.664;9.162;2023-01-08T09:41:32;4.30;99.90
6948;DHT22;3513;47.664;9.162;2023-01-08T09:44:01;4.40;99.90
6948;DHT22;3513;47.664;9.162;2023-01-08T09:46:27;4.30;99.90
6948;DHT22;3513;47.664;9.162;2023-01-08T09:49:15;4.40;99.90
6948;DHT22;3513;47.664;9.162;2023-01-08T09:51:41;4.40;99.90
6948;DHT22;3513;47.664;9.162;2023-01-08T09:54:13;4.40;99.90
6948;DHT22;3513;47.664;9.162;2023-01-08T09:56:39;4.50;99.90
6948;DHT22;3513;47.664;9.162;2023-01-08T09:59:05;4.50;99.90
6948;DHT22;3513;47.664;9.162;2023-01-08T10:01:35;4.60;99.90
6948;DHT22;3513;47.664;9.162;2023-01-08T10:04:20;4.80;99.90
6948;DHT22;3513;47.664;9.162;2023-01-08T10:07:00;4.90;99.90
6948;DHT22;3513;47.664;9.162;2023-01-08T10:09:29;4.90;99.90
6948;DHT22;3513;47.664;9.162;2023-01-08T10:11:58;5.00;99.90
6948;DHT22;3513;47.664;9.162;2023-01-08T10:14:28;5.00;99.90
6948;DHT22;3513;47.664;9.162;2023-01-08T10:17:04;4.90;99.90
6948;DHT22;3513;47.664;9.162;2023-01-08T10:19:31;5.10;99.90
6948;DHT22;3513;47.664;9.162;2023-01-08T10:21:57;5.10;99.90
6948;DHT22;3513;47.664;9.162;2023-01-08T10:24:34;5.10;99.90
6948;DHT22;3513;47.664;9.162;2023-01-08T10:27:13;5.10;99.90
6948;DHT22;3513;47.664;9.162;2023-01-08T10:29:40;5.00;99.90
6948;DHT22;3513;47.664;9.162;2023-01-08T10:32:14;5.10;99.90
6948;DHT22;3513;47.664;9.162;2023-01-08T10:34:45;5.20;99.90
6948;DHT22;3513;47.664;9.162;2023-01-08T10:37:15;5.20;99.90
6948;DHT22;3513;47.664;9.162;2023-01-08T10:39:45;5.20;99.90
6948;DHT22;3513;47.664;9.162;2023-01-08T10:42:16;5.20;99.90
6948;DHT22;3513;47.664;9.162;2023-01-08T10:45:01;5.20;99.90
6948;DHT22;3513;47.664;9.162;2023-01-08T10:47:29;5.20;99.90
6948;DHT22;3513;47.664;9.162;2023-01-08T10:49:57;5.20;99.90
6948;DHT22;3513;47.664;9.162;2023-01-08T10:52:32;5.30;99.90
6948;DHT22;3513;47.664;9.162;2023-01-08T10:55:23;5.30;99.90
6948;DHT22;3513;47.664;9.162;2023-01-08T10:58:00;5.40;99.90
6948;DHT22;3513;47.664;9.162;2023-01-08T11:00:32;5.50;99.90
6948;DHT22;3513;47.664;9.162;2023-01-08T11:03:01;5.50;99.90
6948;DHT22;3513;47.664;9.162;2023-01-08T11:05:35;5.50;99.90
6948;DHT22;3513;47.664;9.162;2023-01-08T11:08:04;5.60;99.90
6948;DHT22;3513;47.664;9.162;2023-01-08T11:10:32;5.60;99.90
6948;DHT22;3513;47.664;9.162;2023-01-08T11:13:03;5.60;99.90
6948;DHT22;3513;47.664;9.162;2023-01-08T11:15:42;5.70;99.90
6948;DHT22;3513;47.664;9.162;2023-01-08T11:18:17;5.70;99.90
6948;DHT22;3513;47.664;9.162;2023-01-08T11:20:44;5.80;99.90
6948;DHT22;3513;47.664;9.162;2023-01-08T11:23:22;5.80;99.90
6948;DHT22;3513;47.664;9.162;2023-01-08T11:26:10;5.90;99.90
6948;DHT22;3513;47.664;9.162;2023-01-08T11:29:16;6.00;99.90
6948;DHT22;3513;47.664;9.162;2023-01-08T11:31:49;6.00;99.90
6948;DHT22;3513;47.664;9.162;2023-01-08T11:37:22;6.20;99.90
6948;DHT22;3513;47.664;9.162;2023-01-08T11:39:53;6.20;99.90
6948;DHT22;3513;47.664;9.162;2023-01-08T11:45:24;6.30;99.90
6948;DHT22;3513;47.664;9.162;2023-01-08T11:48:28;6.40;99.90
6948;DHT22;3513;47.664;9.162;2023-01-08T11:53:31;6.60;99.90
6948;DHT22;3513;47.664;9.162;2023-01-08T11:58:58;6.70;99.90
6948;DHT22;3513;47.664;9.162;2023-01-08T12:01:40;6.80;99.90
6948;DHT22;3513;47.664;9.162;2023-01-08T12:09:43;7.10;99.90
6948;DHT22;3513;47.664;9.162;2023-01-08T12:12:43;7.10;99.90
6948;DHT22;3513;47.664;9.162;2023-01-08T12:15:15;7.10;99.90
6948;DHT22;3513;47.664;9.162;2023-01-08T12:18:00;7.10;99.90
6948;DHT22;3513;47.664;9.162;2023-01-08T12:20:46;7.10;99.90
6948;DHT22;3513;47.664;9.162;2023-01-08T12:34:14;7.40;99.90
6948;DHT22;3513;47.664;9.162;2023-01-08T12:36:44;7.20;99.90
6948;DHT22;3513;47.664;9.162;2023-01-08T12:39:15;7.20;99.90
6948;DHT22;3513;47.664;9.162;2023-01-08T12:41:44;7.20;99.90
6948;DHT22;3513;47.664;9.162;2023-01-08T12:44:11;7.20;99.90
6948;DHT22;3513;47.664;9.162;2023-01-08T12:46:42;7.20;99.90
6948;DHT22;3513;47.664;9.162;2023-01-08T12:49:13;7.20;99.90
6948;DHT22;3513;47.664;9.162;2023-01-08T12:51:58;7.80;99.90
6948;DHT22;3513;47.664;9.162;2023-01-08T12:54:50;7.20;99.90
6948;DHT22;3513;47.664;9.162;2023-01-08T12:57:24;7.20;99.90
6948;DHT22;3513;47.664;9.162;2023-01-08T13:02:48;9.70;99.90
6948;DHT22;3513;47.664;9.162;2023-01-08T13:08:06;6.40;99.90
6948;DHT22;3513;47.664;9.162;2023-01-08T13:10:50;7.20;99.90
6948;DHT22;3513;47.664;9.162;2023-01-08T13:13:40;7.20;99.90
6948;DHT22;3513;47.664;9.162;2023-01-08T13:18:58;7.30;99.90
6948;DHT22;3513;47.664;9.162;2023-01-08T13:21:41;7.30;99.90
6948;DHT22;3513;47.664;9.162;2023-01-08T13:26:55;7.30;99.90
6948;DHT22;3513;47.664;9.162;2023-01-08T13:29:36;7.30;99.90
6948;DHT22;3513;47.664;9.162;2023-01-08T13:32:03;7.40;99.90
6948;DHT22;3513;47.664;9.162;2023-01-08T13:34:39;7.30;99.90
6948;DHT22;3513;47.664;9.162;2023-01-08T13:39:35;7.20;99.90
6948;DHT22;3513;47.664;9.162;2023-01-08T13:44:40;7.20;99.90
6948;DHT22;3513;47.664;9.162;2023-01-08T13:47:18;7.20;99.90
6948;DHT22;3513;47.664;9.162;2023-01-08T13:49:49;7.20;99.90
6948;DHT22;3513;47.664;9.162;2023-01-08T13:52:48;7.30;99.90
6948;DHT22;3513;47.664;9.162;2023-01-08T13:55:32;7.20;99.90
6948;DHT22;3513;47.664;9.162;2023-01-08T13:58:02;7.20;99.90
6948;DHT22;3513;47.664;9.162;2023-01-08T14:03:03;7.30;99.90
6948;DHT22;3513;47.664;9.162;2023-01-08T14:05:31;7.30;99.90
6948;DHT22;3513;47.664;9.162;2023-01-08T14:07:59;7.30;99.90
6948;DHT22;3513;47.664;9.162;2023-01-08T14:10:26;7.30;99.90
6948;DHT22;3513;47.664;9.162;2023-01-08T14:12:53;7.40;99.90
6948;DHT22;3513;47.664;9.162;2023-01-08T14:15:23;7.40;99.90
6948;DHT22;3513;47.664;9.162;2023-01-08T14:17:50;7.40;99.90
6948;DHT22;3513;47.664;9.162;2023-01-08T14:20:26;7.40;99.90
6948;DHT22;3513;47.664;9.162;2023-01-08T14:22:53;7.30;99.90
6948;DHT22;3513;47.664;9.162;2023-01-08T14:25:19;7.30;99.90
6948;DHT22;3513;47.664;9.162;2023-01-08T14:27:54;7.30;99.90
6948;DHT22;3513;47.664;9.162;2023-01-08T14:30:20;7.30;99.90
6948;DHT22;3513;47.664;9.162;2023-01-08T14:32:46;7.20;99.90
6948;DHT22;3513;47.664;9.162;2023-01-08T14:35:15;7.20;99.90
6948;DHT22;3513;47.664;9.162;2023-01-08T14:37:42;7.20;99.90
6948;DHT22;3513;47.664;9.162;2023-01-08T14:40:15;7.20;99.90
6948;DHT22;3513;47.664;9.162;2023-01-08T14:42:43;7.20;99.90
6948;DHT22;3513;47.664;9.162;2023-01-08T14:45:28;7.20;99.90
6948;DHT22;3513;47.664;9.162;2023-01-08T14:48:08;7.30;99.90
6948;DHT22;3513;47.664;9.162;2023-01-08T14:50:38;7.20;99.90
6948;DHT22;3513;47.664;9.162;2023-01-08T14:55:52;7.20;99.90
6948;DHT22;3513;47.664;9.162;2023-01-08T14:58:23;7.20;99.90
6948;DHT22;3513;47.664;9.162;2023-01-08T15:00:56;7.10;99.90
6948;DHT22;3513;47.664;9.162;2023-01-08T15:03:35;7.10;99.90
6948;DHT22;3513;47.664;9.162;2023-01-08T15:06:01;7.10;99.90
6948;DHT22;3513;47.664;9.162;2023-01-08T15:08:40;7.10;99.90
6948;DHT22;3513;47.664;9.162;2023-01-08T15:13:45;7.10;99.90
6948;DHT22;3513;47.664;9.162;2023-01-08T15:19:01;7.00;99.90
6948;DHT22;3513;47.664;9.162;2023-01-08T15:21:28;7.00;99.90
6948;DHT22;3513;47.664;9.162;2023-01-08T15:23:55;7.00;99.90
6948;DHT22;3513;47.664;9.162;2023-01-08T15:26:22;6.90;99.90
6948;DHT22;3513;47.664;9.162;2023-01-08T15:28:58;6.90;99.90
6948;DHT22;3513;47.664;9.162;2023-01-08T15:31:32;6.90;99.90
6948;DHT22;3513;47.664;9.162;2023-01-08T15:34:09;6.90;99.90
6948;DHT22;3513;47.664;9.162;2023-01-08T15:36:35;6.90;99.90
6948;DHT22;3513;47.664;9.162;2023-01-08T15:39:01;6.90;99.90
6948;DHT22;3513;47.664;9.162;2023-01-08T15:41:35;6.90;99.90
6948;DHT22;3513;47.664;9.162;2023-01-08T15:44:19;6.80;99.90
6948;DHT22;3513;47.664;9.162;2023-01-08T15:46:45;7.40;99.90
6948;DHT22;3513;47.664;9.162;2023-01-08T15:49:11;6.80;99.90
6948;DHT22;3513;47.664;9.162;2023-01-08T15:51:40;6.80;99.90
6948;DHT22;3513;47.664;9.162;2023-01-08T15:54:10;6.80;99.90
6948;DHT22;3513;47.664;9.162;2023-01-08T15:56:35;6.80;99.90
6948;DHT22;3513;47.664;9.162;2023-01-08T15:59:01;6.70;99.90
6948;DHT22;3513;47.664;9.162;2023-01-08T16:01:27;6.70;99.90
6948;DHT22;3513;47.664;9.162;2023-01-08T16:03:53;6.70;99.90
6948;DHT22;3513;47.664;9.162;2023-01-08T16:06:19;6.70;99.90
6948;DHT22;3513;47.664;9.162;2023-01-08T16:08:44;6.70;99.90
6948;DHT22;3513;47.664;9.162;2023-01-08T16:11:13;6.70;99.90
6948;DHT22;3513;47.664;9.162;2023-01-08T16:13:39;6.60;99.90
6948;DHT22;3513;47.664;9.162;2023-01-08T16:16:12;6.60;99.90
6948;DHT22;3513;47.664;9.162;2023-01-08T16:18:38;6.60;99.90
6948;DHT22;3513;47.664;9.162;2023-01-08T16:21:05;6.60;99.90
6948;DHT22;3513;47.664;9.162;2023-01-08T16:23:33;6.60;99.90
6948;DHT22;3513;47.664;9.162;2023-01-08T16:26:04;6.60;99.90
6948;DHT22;3513;47.664;9.162;2023-01-08T16:28:30;6.50;99.90
6948;DHT22;3513;47.664;9.162;2023-01-08T16:30:55;6.50;99.90
6948;DHT22;3513;47.664;9.162;2023-01-08T16:33:21;6.50;99.90
6948;DHT22;3513;47.664;9.162;2023-01-08T16:36:02;6.50;99.90
6948;DHT22;3513;47.664;9.162;2023-01-08T16:38:28;6.60;99.90
6948;DHT22;3513;47.664;9.162;2023-01-08T16:40:54;6.60;99.90
6948;DHT22;3513;47.664;9.162;2023-01-08T16:43:26;6.60;99.90
6948;DHT22;3513;47.664;9.162;2023-01-08T16:45:52;6.60;99.90
6948;DHT22;3513;47.664;9.162;2023-01-08T16:48:20;6.60;99.90
6948;DHT22;3513;47.664;9.162;2023-01-08T16:50:46;6.60;99.90
6948;DHT22;3513;47.664;9.162;2023-01-08T16:53:12;6.60;99.90
6948;DHT22;3513;47.664;9.162;2023-01-08T16:55:41;6.60;99.90
6948;DHT22;3513;47.664;9.162;2023-01-08T16:58:07;6.50;99.90
6948;DHT22;3513;47.664;9.162;2023-01-08T17:00:34;6.50;99.90
6948;DHT22;3513;47.664;9.162;2023-01-08T17:03:00;6.50;99.90
6948;DHT22;3513;47.664;9.162;2023-01-08T17:05:26;6.50;99.90
6948;DHT22;3513;47.664;9.162;2023-01-08T17:07:55;6.40;99.90
6948;DHT22;3513;47.664;9.162;2023-01-08T17:10:22;6.40;99.90
6948;DHT22;3513;47.664;9.162;2023-01-08T17:12:48;6.30;99.90
6948;DHT22;3513;47.664;9.162;2023-01-08T17:15:13;6.30;99.90
6948;DHT22;3513;47.664;9.162;2023-01-08T17:17:39;6.40;99.90
6948;DHT22;3513;47.664;9.162;2023-01-08T17:20:06;6.40;99.90
6948;DHT22;3513;47.664;9.162;2023-01-08T17:22:31;6.30;99.90
6948;DHT22;3513;47.664;9.162;2023-01-08T17:24:57;6.30;99.90
6948;DHT22;3513;47.664;9.162;2023-01-08T17:27:23;6.30;99.90
6948;DHT22;3513;47.664;9.162;2023-01-08T17:29:48;6.30;99.90
6948;DHT22;3513;47.664;9.162;2023-01-08T17:32:14;6.30;99.90
6948;DHT22;3513;47.664;9.162;2023-01-08T17:34:40;6.30;99.90
6948;DHT22;3513;47.664;9.162;2023-01-08T17:37:05;6.30;99.90
6948;DHT22;3513;47.664;9.162;2023-01-08T17:39:31;6.30;99.90
6948;DHT22;3513;47.664;9.162;2023-01-08T17:41:57;6.20;99.90
6948;DHT22;3513;47.664;9.162;2023-01-08T17:45:01;6.20;99.90
6948;DHT22;3513;47.664;9.162;2023-01-08T17:47:30;6.20;99.90
6948;DHT22;3513;47.664;9.162;2023-01-08T17:49:56;6.30;99.90
6948;DHT22;3513;47.664;9.162;2023-01-08T17:52:23;6.30;99.90
6948;DHT22;3513;47.664;9.162;2023-01-08T17:54:52;6.30;99.90